Atalandi — SVBA — position and weather

sailwx.info

Track history (hours):
 
Tides and Currents Weather Stations Pressure Air Temp Water Temp Dewpoint Dewpoint Depression Visibility Wind Speed Wind Dir Waves Ship Positions

Atalandi

Last reported at 2018-May-25 01:33 UTC. Time now 2018-May-25 05:32 UTC.
Position N 37°48' E 002°35'.

Length 248 m; draft 8.5 m.

Type: Ship. MMSI: 240269000.

Date/timePositionNaut miles runAvg speedWind from/ knotsBaromVisibWave heightAir tempDewpointWater temp
2018-May-25 01:33N 37°48' E 002°35'113.3
2018-May-25 01:27N 37°49' E 002°36'713.3
2018-May-25 00:55N 37°52' E 002°44'613.4
2018-May-25 00:30N 37°54' E 002°51'713.6
2018-May-25 00:00N 37°57' E 002°59'713.7
2018-May-24 23:30N 38°00' E 003°06'713.7
2018-May-24 23:00N 38°03' E 003°14'713.9
2018-May-24 22:30N 38°06' E 003°22'713.8
2018-May-24 22:00N 38°09' E 003°30'813.6
2018-May-24 21:27N 38°12' E 003°39'613.6
2018-May-24 21:00N 38°15' E 003°46'713.4
2018-May-24 20:29N 38°18' E 003°54'713.4
2018-May-24 19:59N 38°21' E 004°01'613.4
2018-May-24 19:30N 38°24' E 004°09'713.4
2018-May-24 18:59N 38°27' E 004°16'713.3
2018-May-24 18:28N 38°30' E 004°24'713.2
2018-May-24 17:58N 38°33' E 004°32'613.6
2018-May-24 17:30N 38°36' E 004°39'713.7
2018-May-24 16:59N 38°40' E 004°47'2413.2
2018-May-24 15:08N 38°53' E 005°13'313.0
2018-May-24 14:53N 38°54' E 005°17'16 1.2
2018-May-24 01:41N 38°48' E 005°36'0 0.6
2018-May-24 01:19N 38°48' E 005°36'0 0.8
2018-May-24 00:58N 38°48' E 005°36'0 0.9
2018-May-24 00:26N 38°47' E 005°35'0 0.8
2018-May-23 23:59N 38°47' E 005°35'3 0.9
2018-May-23 20:46N 38°45' E 005°32'0 0.9
2018-May-23 20:23N 38°45' E 005°31'1 0.9
2018-May-23 19:01N 38°44' E 005°30'0 1.2
2018-May-23 18:58N 38°44' E 005°30'1 1.7
2018-May-23 18:30N 38°44' E 005°29'  
2018-May-19 14:11N 42°54' E 005°04'1 5.9
2018-May-19 14:00N 42°56' E 005°04'3 5.9
2018-May-19 13:30N 42°58' E 005°04'3 5.8
2018-May-19 13:00N 43°01' E 005°03'3 5.7
2018-May-19 12:30N 43°04' E 005°03'3 5.5
2018-May-19 12:00N 43°07' E 005°02'3 5.6
2018-May-19 11:31N 43°10' E 005°01'3 5.5
2018-May-19 10:55N 43°13' E 005°01'2 5.5
2018-May-19 10:30N 43°15' E 004°60'3 5.6
2018-May-19 10:00N 43°18' E 004°59'3 5.8
2018-May-19 09:30N 43°20' E 004°58'4 7.7
2018-May-19 09:00N 43°24' E 004°55'1 0.0
2018-May-17 19:21N 43°24' E 004°53'0 0.0
2018-May-17 18:58N 43°24' E 004°53'1 1.5
2018-May-17 18:30N 43°24' E 004°54'4 7.3
2018-May-17 18:00N 43°22' E 004°59'0 0.7
2018-May-17 17:25N 43°22' E 004°59'0 0.1
2018-May-17 16:55N 43°22' E 004°59'0 0.0
2018-May-17 16:28N 43°22' E 004°59'0 0.1
2018-May-17 15:55N 43°22' E 004°59'0 0.0
2018-May-17 15:25N 43°22' E 004°59'0 0.0
2018-May-17 14:58N 43°22' E 004°59'0 0.0
2018-May-17 14:19N 43°22' E 004°59'0 0.0
2018-May-17 13:55N 43°22' E 004°59'0 0.0
2018-May-17 13:28N 43°22' E 004°59'0 0.0
2018-May-17 12:58N 43°22' E 004°59'0 0.0
2018-May-17 12:28N 43°22' E 004°59'0 0.0
2018-May-17 11:58N 43°22' E 004°59'0 0.0
2018-May-17 11:28N 43°22' E 004°59'0 0.0
2018-May-17 10:58N 43°22' E 004°59'0 0.1
2018-May-17 10:28N 43°22' E 004°59'0 0.1
2018-May-17 09:58N 43°22' E 004°59'0 0.1
2018-May-17 09:28N 43°22' E 004°59'0 0.1
2018-May-17 08:58N 43°22' E 004°59'0 0.0
2018-May-17 08:28N 43°22' E 004°59'0 0.1
2018-May-17 07:58N 43°22' E 004°59'0 0.1
2018-May-17 07:28N 43°22' E 004°59'0 0.1
2018-May-17 06:58N 43°22' E 004°59'0 0.0
2018-May-17 06:28N 43°22' E 004°59'0 0.0
2018-May-17 05:58N 43°22' E 004°59'0 0.1
2018-May-17 05:28N 43°22' E 004°59'0 0.1
2018-May-17 04:58N 43°22' E 004°59'0 0.1
2018-May-17 04:28N 43°22' E 004°59'0 0.1
2018-May-17 03:58N 43°22' E 004°59'0 0.1
2018-May-17 03:28N 43°22' E 004°59'0 0.0
2018-May-17 02:58N 43°22' E 004°59'0 0.0
2018-May-17 02:28N 43°22' E 004°59'0 0.0
2018-May-17 01:58N 43°22' E 004°59'0 0.0
2018-May-17 01:28N 43°22' E 004°59'0 0.0
2018-May-17 00:58N 43°22' E 004°59'0 0.0
2018-May-17 00:28N 43°22' E 004°59'0 0.0
2018-May-16 23:58N 43°22' E 004°59'0 0.0
2018-May-16 23:28N 43°22' E 004°59'0 0.0
2018-May-16 22:58N 43°22' E 004°59'0 0.0
2018-May-16 22:28N 43°22' E 004°59'0 0.0
2018-May-16 21:58N 43°22' E 004°59'0 0.0
2018-May-16 21:28N 43°22' E 004°59'0 0.0
2018-May-16 20:58N 43°22' E 004°59'0 0.0
2018-May-16 20:28N 43°22' E 004°59'0 0.1
2018-May-16 19:58N 43°22' E 004°59'0 0.1
2018-May-16 19:28N 43°22' E 004°59'0 0.0
2018-May-16 18:58N 43°22' E 004°59'0 0.0
2018-May-16 18:28N 43°22' E 004°59'0 0.1
2018-May-16 17:55N 43°22' E 004°59'0 0.1
2018-May-16 17:28N 43°22' E 004°59'0 0.1
2018-May-16 16:58N 43°22' E 004°59'0 0.4
2018-May-16 16:30N 43°22' E 004°59'2 4.5
2018-May-16 16:00N 43°20' E 004°59'3 6.1
2018-May-16 15:30N 43°17' E 005°01'3 6.2
2018-May-16 15:00N 43°14' E 005°02'510.9
2018-May-16 14:30N 43°08' E 005°03'3 6.5
2018-May-16 14:00N 43°05' E 005°03'16511.1
2018-May-15 23:11N 40°43' E 003°10'2413.2
2018-May-15 21:23N 40°27' E 002°48'512.8
2018-May-15 20:58N 40°23' E 002°43'812.4
2018-May-15 20:21N 40°18' E 002°36'18612.8
2018-May-15 05:47N 38°01' W 000°06'1913.3
2018-May-15 04:21N 37°45' W 000°20'513.4
2018-May-15 04:00N 37°41' W 000°23'713.4
2018-May-15 03:30N 37°36' W 000°28'713.0
2018-May-15 03:00N 37°31' W 000°34'612.6
2018-May-15 02:30N 37°26' W 000°39'612.3
2018-May-15 02:01N 37°22' W 000°45'  
Track history (hours):
 
Tides and Currents Weather Stations Pressure Air Temp Water Temp Dewpoint Dewpoint Depression Visibility Wind Speed Wind Dir Waves Ship Positions

Atalandi

Last reported at 2018-May-25 01:33 UTC. Time now 2018-May-25 05:32 UTC.
Position N 37°48' E 002°35'.

Length 248 m; draft 8.5 m.

Type: Ship. MMSI: 240269000.

Date/timePositionNaut miles runAvg speedWind from/ knotsBaromVisibWave heightAir tempDewpointWater temp
2018-May-25 01:33N 37°48' E 002°35'113.3
2018-May-25 01:27N 37°49' E 002°36'713.3
2018-May-25 00:55N 37°52' E 002°44'613.4
2018-May-25 00:30N 37°54' E 002°51'713.6
2018-May-25 00:00N 37°57' E 002°59'713.7
2018-May-24 23:30N 38°00' E 003°06'713.7
2018-May-24 23:00N 38°03' E 003°14'713.9
2018-May-24 22:30N 38°06' E 003°22'713.8
2018-May-24 22:00N 38°09' E 003°30'813.6
2018-May-24 21:27N 38°12' E 003°39'613.6
2018-May-24 21:00N 38°15' E 003°46'713.4
2018-May-24 20:29N 38°18' E 003°54'713.4
2018-May-24 19:59N 38°21' E 004°01'613.4
2018-May-24 19:30N 38°24' E 004°09'713.4
2018-May-24 18:59N 38°27' E 004°16'713.3
2018-May-24 18:28N 38°30' E 004°24'713.2
2018-May-24 17:58N 38°33' E 004°32'613.6
2018-May-24 17:30N 38°36' E 004°39'713.7
2018-May-24 16:59N 38°40' E 004°47'2413.2
2018-May-24 15:08N 38°53' E 005°13'313.0
2018-May-24 14:53N 38°54' E 005°17'16 1.2
2018-May-24 01:41N 38°48' E 005°36'0 0.6
2018-May-24 01:19N 38°48' E 005°36'0 0.8
2018-May-24 00:58N 38°48' E 005°36'0 0.9
2018-May-24 00:26N 38°47' E 005°35'0 0.8
2018-May-23 23:59N 38°47' E 005°35'3 0.9
2018-May-23 20:46N 38°45' E 005°32'0 0.9
2018-May-23 20:23N 38°45' E 005°31'1 0.9
2018-May-23 19:01N 38°44' E 005°30'0 1.2
2018-May-23 18:58N 38°44' E 005°30'1 1.7
2018-May-23 18:30N 38°44' E 005°29'  
2018-May-19 14:11N 42°54' E 005°04'1 5.9
2018-May-19 14:00N 42°56' E 005°04'3 5.9
2018-May-19 13:30N 42°58' E 005°04'3 5.8
2018-May-19 13:00N 43°01' E 005°03'3 5.7
2018-May-19 12:30N 43°04' E 005°03'3 5.5
2018-May-19 12:00N 43°07' E 005°02'3 5.6
2018-May-19 11:31N 43°10' E 005°01'3 5.5
2018-May-19 10:55N 43°13' E 005°01'2 5.5
2018-May-19 10:30N 43°15' E 004°60'3 5.6
2018-May-19 10:00N 43°18' E 004°59'3 5.8
2018-May-19 09:30N 43°20' E 004°58'4 7.7
2018-May-19 09:00N 43°24' E 004°55'1 0.0
2018-May-17 19:21N 43°24' E 004°53'0 0.0
2018-May-17 18:58N 43°24' E 004°53'1 1.5
2018-May-17 18:30N 43°24' E 004°54'4 7.3
2018-May-17 18:00N 43°22' E 004°59'0 0.7
2018-May-17 17:25N 43°22' E 004°59'0 0.1
2018-May-17 16:55N 43°22' E 004°59'0 0.0
2018-May-17 16:28N 43°22' E 004°59'0 0.1
2018-May-17 15:55N 43°22' E 004°59'0 0.0
2018-May-17 15:25N 43°22' E 004°59'0 0.0
2018-May-17 14:58N 43°22' E 004°59'0 0.0
2018-May-17 14:19N 43°22' E 004°59'0 0.0
2018-May-17 13:55N 43°22' E 004°59'0 0.0
2018-May-17 13:28N 43°22' E 004°59'0 0.0
2018-May-17 12:58N 43°22' E 004°59'0 0.0
2018-May-17 12:28N 43°22' E 004°59'0 0.0
2018-May-17 11:58N 43°22' E 004°59'0 0.0
2018-May-17 11:28N 43°22' E 004°59'0 0.0
2018-May-17 10:58N 43°22' E 004°59'0 0.1
2018-May-17 10:28N 43°22' E 004°59'0 0.1
2018-May-17 09:58N 43°22' E 004°59'0 0.1
2018-May-17 09:28N 43°22' E 004°59'0 0.1
2018-May-17 08:58N 43°22' E 004°59'0 0.0
2018-May-17 08:28N 43°22' E 004°59'0 0.1
2018-May-17 07:58N 43°22' E 004°59'0 0.1
2018-May-17 07:28N 43°22' E 004°59'0 0.1
2018-May-17 06:58N 43°22' E 004°59'0 0.0
2018-May-17 06:28N 43°22' E 004°59'0 0.0
2018-May-17 05:58N 43°22' E 004°59'0 0.1
2018-May-17 05:28N 43°22' E 004°59'0 0.1
2018-May-17 04:58N 43°22' E 004°59'0 0.1
2018-May-17 04:28N 43°22' E 004°59'0 0.1
2018-May-17 03:58N 43°22' E 004°59'0 0.1
2018-May-17 03:28N 43°22' E 004°59'0 0.0
2018-May-17 02:58N 43°22' E 004°59'0 0.0
2018-May-17 02:28N 43°22' E 004°59'0 0.0
2018-May-17 01:58N 43°22' E 004°59'0 0.0
2018-May-17 01:28N 43°22' E 004°59'0 0.0
2018-May-17 00:58N 43°22' E 004°59'0 0.0
2018-May-17 00:28N 43°22' E 004°59'0 0.0
2018-May-16 23:58N 43°22' E 004°59'0 0.0
2018-May-16 23:28N 43°22' E 004°59'0 0.0
2018-May-16 22:58N 43°22' E 004°59'0 0.0
2018-May-16 22:28N 43°22' E 004°59'0 0.0
2018-May-16 21:58N 43°22' E 004°59'0 0.0
2018-May-16 21:28N 43°22' E 004°59'0 0.0
2018-May-16 20:58N 43°22' E 004°59'0 0.0
2018-May-16 20:28N 43°22' E 004°59'0 0.1
2018-May-16 19:58N 43°22' E 004°59'0 0.1
2018-May-16 19:28N 43°22' E 004°59'0 0.0
2018-May-16 18:58N 43°22' E 004°59'0 0.0
2018-May-16 18:28N 43°22' E 004°59'0 0.1
2018-May-16 17:55N 43°22' E 004°59'0 0.1
2018-May-16 17:28N 43°22' E 004°59'0 0.1
2018-May-16 16:58N 43°22' E 004°59'0 0.4
2018-May-16 16:30N 43°22' E 004°59'2 4.5
2018-May-16 16:00N 43°20' E 004°59'3 6.1
2018-May-16 15:30N 43°17' E 005°01'3 6.2
2018-May-16 15:00N 43°14' E 005°02'510.9
2018-May-16 14:30N 43°08' E 005°03'3 6.5
2018-May-16 14:00N 43°05' E 005°03'16511.1
2018-May-15 23:11N 40°43' E 003°10'2413.2
2018-May-15 21:23N 40°27' E 002°48'512.8
2018-May-15 20:58N 40°23' E 002°43'812.4
2018-May-15 20:21N 40°18' E 002°36'18612.8
2018-May-15 05:47N 38°01' W 000°06'1913.3
2018-May-15 04:21N 37°45' W 000°20'513.4
2018-May-15 04:00N 37°41' W 000°23'713.4
2018-May-15 03:30N 37°36' W 000°28'713.0
2018-May-15 03:00N 37°31' W 000°34'612.6
2018-May-15 02:30N 37°26' W 000°39'612.3
2018-May-15 02:01N 37°22' W 000°45'  

Dump ship's entire track history